地図

経路データ

SID SEASON NUMBER BASIN SUBBASIN NAME ISO_TIME NATURE LAT LON WMO_WIND WMO_PRES WMO_AGENCY TRACK_TYPE DIST2LAND LANDFALL IFLAG USA_AGENCY USA_ATCF_ID USA_LAT USA_LON USA_RECORD USA_STATUS USA_WIND USA_PRES USA_SSHS USA_R34_NE USA_R34_SE USA_R34_SW USA_R34_NW USA_R50_NE USA_R50_SE USA_R50_SW USA_R50_NW USA_R64_NE USA_R64_SE USA_R64_SW USA_R64_NW USA_POCI USA_ROCI USA_RMW USA_EYE TOKYO_LAT TOKYO_LON TOKYO_GRADE TOKYO_WIND TOKYO_PRES TOKYO_R50_DIR TOKYO_R50_LONG TOKYO_R50_SHORT TOKYO_R30_DIR TOKYO_R30_LONG TOKYO_R30_SHORT TOKYO_LAND CMA_LAT CMA_LON CMA_CAT CMA_WIND CMA_PRES HKO_LAT HKO_LON HKO_CAT HKO_WIND HKO_PRES NEWDELHI_LAT NEWDELHI_LON NEWDELHI_GRADE NEWDELHI_WIND NEWDELHI_PRES NEWDELHI_CI NEWDELHI_DP NEWDELHI_POCI REUNION_LAT REUNION_LON REUNION_TYPE REUNION_WIND REUNION_PRES REUNION_TNUM REUNION_CI REUNION_RMW REUNION_R34_NE REUNION_R34_SE REUNION_R34_SW REUNION_R34_NW REUNION_R50_NE REUNION_R50_SE REUNION_R50_SW REUNION_R50_NW REUNION_R64_NE REUNION_R64_SE REUNION_R64_SW REUNION_R64_NW BOM_LAT BOM_LON BOM_TYPE BOM_WIND BOM_PRES BOM_TNUM BOM_CI BOM_RMW BOM_R34_NE BOM_R34_SE BOM_R34_SW BOM_R34_NW BOM_R50_NE BOM_R50_SE BOM_R50_SW BOM_R50_NW BOM_R64_NE BOM_R64_SE BOM_R64_SW BOM_R64_NW BOM_ROCI BOM_POCI BOM_EYE BOM_POS_METHOD BOM_PRES_METHOD NADI_LAT NADI_LON NADI_CAT NADI_WIND NADI_PRES WELLINGTON_LAT WELLINGTON_LON WELLINGTON_WIND WELLINGTON_PRES DS824_LAT DS824_LON DS824_STAGE DS824_WIND DS824_PRES TD9636_LAT TD9636_LON TD9636_STAGE TD9636_WIND TD9636_PRES TD9635_LAT TD9635_LON TD9635_WIND TD9635_PRES TD9635_ROCI NEUMANN_LAT NEUMANN_LON NEUMANN_CLASS NEUMANN_WIND NEUMANN_PRES MLC_LAT MLC_LON MLC_CLASS MLC_WIND MLC_PRES USA_GUST BOM_GUST BOM_GUST_PER REUNION_GUST REUNION_GUST_PER USA_SEAHGT USA_SEARAD_NE USA_SEARAD_SE USA_SEARAD_SW USA_SEARAD_NW STORM_SPEED STORM_DIR
1896281N23269 1896 41 NA GM NOT_NAMED 1896-10-07 00:00:00 TS 22.5000 -91.2000 35 hurdat_atl main 182 176 O_____________ hurdat_atl AL051896 22.5000 -91.2000 TS 35 0 11 61
1896281N23269 1896 41 NA GM NOT_NAMED 1896-10-07 03:00:00 TS 22.7553 -90.7003 main 194 189 P_____________ AL051896 22.7553 -90.7003 TS 37 0 11 62
1896281N23269 1896 41 NA GM NOT_NAMED 1896-10-07 06:00:00 TS 23.0000 -90.2000 40 hurdat_atl main 203 202 O_____________ hurdat_atl AL051896 23.0000 -90.2000 TS 40 0 10 63
1896281N23269 1896 41 NA GM NOT_NAMED 1896-10-07 09:00:00 TS 23.2223 -89.6999 main 216 214 P_____________ AL051896 23.2223 -89.6999 TS 42 0 10 66
1896281N23269 1896 41 NA GM NOT_NAMED 1896-10-07 12:00:00 TS 23.4000 -89.2000 45 hurdat_atl main 221 216 O_____________ hurdat_atl AL051896 23.4000 -89.2000 TS 45 0 10 73
1896281N23269 1896 41 NA GM NOT_NAMED 1896-10-07 15:00:00 TS 23.5074 -88.6922 main 223 223 P_____________ AL051896 23.5074 -88.6922 TS 47 0 9 78
1896281N23269 1896 41 NA GM NOT_NAMED 1896-10-07 18:00:00 TS 23.6000 -88.2000 50 hurdat_atl main 234 234 O_____________ hurdat_atl AL051896 23.6000 -88.2000 TS 50 0 9 75
1896281N23269 1896 41 NA GM NOT_NAMED 1896-10-07 21:00:00 TS 23.7422 -87.7499 main 245 245 P_____________ AL051896 23.7422 -87.7499 TS 50 0 9 70
1896281N23269 1896 41 NA GM NOT_NAMED 1896-10-08 00:00:00 TS 23.9000 -87.3000 50 hurdat_atl main 269 268 O_____________ hurdat_atl AL051896 23.9000 -87.3000 TS 50 0 9 72
1896281N23269 1896 41 NA GM NOT_NAMED 1896-10-08 03:00:00 TS 24.0273 -86.8146 main 280 280 P_____________ AL051896 24.0273 -86.8146 TS 50 0 10 72
1896281N23269 1896 41 NA GM NOT_NAMED 1896-10-08 06:00:00 TS 24.2000 -86.3000 50 hurdat_atl main 286 264 O_____________ hurdat_atl AL051896 24.2000 -86.3000 TS 50 0 10 65
1896281N23269 1896 41 NA GM NOT_NAMED 1896-10-08 09:00:00 TS 24.4697 -85.7723 main 272 259 P_____________ AL051896 24.4697 -85.7723 TS 50 0 12 59
1896281N23269 1896 41 NA GM NOT_NAMED 1896-10-08 12:00:00 TS 24.8000 -85.2000 50 hurdat_atl main 264 260 O_____________ hurdat_atl AL051896 24.8000 -85.2000 TS 50 0 13 58
1896281N23269 1896 41 NA GM NOT_NAMED 1896-10-08 15:00:00 TS 25.1423 -84.5723 main 272 215 P_____________ AL051896 25.1423 -84.5723 TS 50 0 14 59
1896281N23269 1896 41 NA GM NOT_NAMED 1896-10-08 18:00:00 TS 25.5000 -83.9000 50 hurdat_atl main 215 149 O_____________ hurdat_atl AL051896 25.5000 -83.9000 TS 50 0 14 60
1896281N23269 1896 41 NA GM NOT_NAMED 1896-10-08 21:00:00 TS 25.8614 -83.2179 main 134 59 P_____________ AL051896 25.8614 -83.2179 TS 50 0 14 61
1896281N23269 1896 41 NA GM NOT_NAMED 1896-10-09 00:00:00 TS 26.2000 -82.5000 50 hurdat_atl main 59 11 O_____________ hurdat_atl AL051896 26.2000 -82.5000 TS 50 0 15 64
1896281N23269 1896 41 NA GM NOT_NAMED 1896-10-09 02:00:00 TS 26.4000 -82.0000 50 hurdat_atl main 11 0 O_____________ hurdat_atl AL051896 26.4000 -82.0000 L TS 50 0 15 63
1896281N23269 1896 41 NA NA NOT_NAMED 1896-10-09 03:00:00 TS 26.5316 -81.7605 main 0 0 P_____________ AL051896 26.5316 -81.7605 TS 47 0 15 53
1896281N23269 1896 41 NA NA NOT_NAMED 1896-10-09 06:00:00 TS 27.0000 -81.1000 40 hurdat_atl main 0 0 O_____________ hurdat_atl AL051896 27.0000 -81.1000 TS 40 0 14 52
1896281N23269 1896 41 NA NA NOT_NAMED 1896-10-09 09:00:00 TS 27.4089 -80.5125 main 0 0 P_____________ AL051896 27.4089 -80.5125 TS 37 0 13 51
1896281N23269 1896 41 NA NA NOT_NAMED 1896-10-09 12:00:00 TS 27.8000 -80.0000 35 hurdat_atl main 45 45 O_____________ hurdat_atl AL051896 27.8000 -80.0000 TS 35 0 12 48
1896281N23269 1896 41 NA NA NOT_NAMED 1896-10-09 15:00:00 TS 28.1997 -79.5345 main 103 100 P_____________ AL051896 28.1997 -79.5345 TS 40 0 11 45
1896281N23269 1896 41 NA NA NOT_NAMED 1896-10-09 18:00:00 TS 28.6000 -79.1000 45 hurdat_atl main 137 137 O_____________ hurdat_atl AL051896 28.6000 -79.1000 TS 45 0 11 44
1896281N23269 1896 41 NA NA NOT_NAMED 1896-10-09 21:00:00 TS 28.9999 -78.6422 main 193 193 P_____________ AL051896 28.9999 -78.6422 TS 47 0 11 45
1896281N23269 1896 41 NA NA NOT_NAMED 1896-10-10 00:00:00 TS 29.4000 -78.2000 50 hurdat_atl main 245 245 O_____________ hurdat_atl AL051896 29.4000 -78.2000 TS 50 0 11 43
1896281N23269 1896 41 NA NA NOT_NAMED 1896-10-10 03:00:00 TS 29.7999 -77.7847 main 299 299 P_____________ AL051896 29.7999 -77.7847 TS 52 0 11 41
1896281N23269 1896 41 NA NA NOT_NAMED 1896-10-10 06:00:00 TS 30.2000 -77.4000 55 hurdat_atl main 354 344 O_____________ hurdat_atl AL051896 30.2000 -77.4000 TS 55 0 10 39
1896281N23269 1896 41 NA NA NOT_NAMED 1896-10-10 09:00:00 TS 30.5998 -77.0421 main 350 338 P_____________ AL051896 30.5998 -77.0421 TS 57 0 10 37
1896281N23269 1896 41 NA NA NOT_NAMED 1896-10-10 12:00:00 TS 31.0000 -76.7000 60 hurdat_atl main 338 316 O_____________ hurdat_atl AL051896 31.0000 -76.7000 TS 60 0 10 37
1896281N23269 1896 41 NA NA NOT_NAMED 1896-10-10 15:00:00 TS 31.3924 -76.3496 main 320 299 P_____________ AL051896 31.3924 -76.3496 TS 62 0 10 37
1896281N23269 1896 41 NA NA NOT_NAMED 1896-10-10 18:00:00 TS 31.8000 -76.0000 65 hurdat_atl main 299 285 O_____________ hurdat_atl AL051896 31.8000 -76.0000 HU 65 1 10 35
1896281N23269 1896 41 NA NA NOT_NAMED 1896-10-10 21:00:00 TS 32.2500 -75.6424 main 290 248 P_____________ AL051896 32.2500 -75.6424 HU 70 1 11 33
1896281N23269 1896 41 NA NA NOT_NAMED 1896-10-11 00:00:00 TS 32.7000 -75.3000 75 hurdat_atl main 248 225 O_____________ hurdat_atl AL051896 32.7000 -75.3000 HU 75 1 10 32
1896281N23269 1896 41 NA NA NOT_NAMED 1896-10-11 03:00:00 TS 33.1072 -75.0068 main 225 212 P_____________ AL051896 33.1072 -75.0068 HU 80 1 9 32
1896281N23269 1896 41 NA NA NOT_NAMED 1896-10-11 06:00:00 TS 33.5000 -74.7000 85 hurdat_atl main 212 205 O_____________ hurdat_atl AL051896 33.5000 -74.7000 HU 85 2 10 36
1896281N23269 1896 41 NA NA NOT_NAMED 1896-10-11 09:00:00 TS 33.9000 -74.3148 main 214 211 P_____________ AL051896 33.9000 -74.3148 HU 85 2 10 40
1896281N23269 1896 41 NA NA NOT_NAMED 1896-10-11 12:00:00 TS 34.3000 -73.9000 85 hurdat_atl main 218 218 O_____________ hurdat_atl AL051896 34.3000 -73.9000 HU 85 2 11 40
1896281N23269 1896 41 NA NA NOT_NAMED 1896-10-11 15:00:00 TS 34.7074 -73.4997 main 218 212 P_____________ AL051896 34.7074 -73.4997 HU 85 2 10 39
1896281N23269 1896 41 NA NA NOT_NAMED 1896-10-11 18:00:00 TS 35.1000 -73.1000 85 hurdat_atl main 230 230 O_____________ hurdat_atl AL051896 35.1000 -73.1000 HU 85 2 10 41
1896281N23269 1896 41 NA NA NOT_NAMED 1896-10-11 21:00:00 TS 35.4498 -72.7068 main 256 254 P_____________ AL051896 35.4498 -72.7068 HU 85 2 10 43
1896281N23269 1896 41 NA NA NOT_NAMED 1896-10-12 00:00:00 TS 35.8000 -72.3000 85 hurdat_atl main 287 287 O_____________ hurdat_atl AL051896 35.8000 -72.3000 HU 85 2 10 43
1896281N23269 1896 41 NA NA NOT_NAMED 1896-10-12 03:00:00 TS 36.2000 -71.8500 main 326 326 P_____________ AL051896 36.2000 -71.8500 HU 85 2 11 42
1896281N23269 1896 41 NA NA NOT_NAMED 1896-10-12 06:00:00 TS 36.6000 -71.4000 85 hurdat_atl main 376 376 O_____________ hurdat_atl AL051896 36.6000 -71.4000 HU 85 2 10 42
1896281N23269 1896 41 NA NA NOT_NAMED 1896-10-12 09:00:00 TS 36.9573 -70.9919 main 387 387 P_____________ AL051896 36.9573 -70.9919 HU 85 2 9 42
1896281N23269 1896 41 NA NA NOT_NAMED 1896-10-12 12:00:00 TS 37.3000 -70.6000 85 hurdat_atl main 404 404 O_____________ hurdat_atl AL051896 37.3000 -70.6000 HU 85 2 9 42
1896281N23269 1896 41 NA NA NOT_NAMED 1896-10-12 15:00:00 TS 37.6573 -70.2072 main 401 392 P_____________ AL051896 37.6573 -70.2072 HU 85 2 9 42
1896281N23269 1896 41 NA NA NOT_NAMED 1896-10-12 18:00:00 TS 38.0000 -69.8000 85 hurdat_atl main 393 372 O_____________ hurdat_atl AL051896 38.0000 -69.8000 HU 85 2 9 46
1896281N23269 1896 41 NA NA NOT_NAMED 1896-10-12 21:00:00 TS 38.2999 -69.3570 main 372 353 P_____________ AL051896 38.2999 -69.3570 HU 82 1 9 50
1896281N23269 1896 41 NA NA NOT_NAMED 1896-10-13 00:00:00 TS 38.6000 -68.9000 80 hurdat_atl main 357 336 O_____________ hurdat_atl AL051896 38.6000 -68.9000 HU 80 1 10 48
1896281N23269 1896 41 NA NA NOT_NAMED 1896-10-13 03:00:00 TS 38.9424 -68.4423 main 339 315 P_____________ AL051896 38.9424 -68.4423 HU 77 1 10 45
1896281N23269 1896 41 NA NA NOT_NAMED 1896-10-13 06:00:00 TS 39.3000 -68.0000 75 hurdat_atl main 315 303 O_____________ hurdat_atl AL051896 39.3000 -68.0000 HU 75 1 10 43
1896281N23269 1896 41 NA NA NOT_NAMED 1896-10-13 09:00:00 TS 39.6423 -67.5919 main 308 296 P_____________ AL051896 39.6423 -67.5919 HU 72 1 9 41
1896281N23269 1896 41 NA NA NOT_NAMED 1896-10-13 12:00:00 TS 40.0000 -67.2000 70 hurdat_atl main 301 301 O_____________ hurdat_atl AL051896 40.0000 -67.2000 HU 70 1 10 39
1896281N23269 1896 41 NA NA NOT_NAMED 1896-10-13 15:00:00 TS 40.3924 -66.7923 main 304 304 P_____________ AL051896 40.3924 -66.7923 HU 67 1 10 37
1896281N23269 1896 41 NA NA NOT_NAMED 1896-10-13 18:00:00 TS 40.8000 -66.4000 65 hurdat_atl main 305 257 O_____________ hurdat_atl AL051896 40.8000 -66.4000 HU 65 1 10 35
1896281N23269 1896 41 NA NA NOT_NAMED 1896-10-13 21:00:00 TS 41.1998 -66.0493 main 256 211 P_____________ AL051896 41.1998 -66.0493 HU 62 0 10 33
1896281N23269 1896 41 NA NA NOT_NAMED 1896-10-14 00:00:00 ET 41.6000 -65.7000 60 hurdat_atl main 211 166 O_____________ hurdat_atl AL051896 41.6000 -65.7000 EX 60 -4 10 35
1896281N23269 1896 41 NA NA NOT_NAMED 1896-10-14 03:00:00 ET 42.0000 -65.2998 main 166 126 P_____________ AL051896 42.0000 -65.2998 EX 57 -4 10 37
1896281N23269 1896 41 NA NA NOT_NAMED 1896-10-14 06:00:00 ET 42.4000 -64.9000 55 hurdat_atl main 126 96 O_____________ hurdat_atl AL051896 42.4000 -64.9000 EX 55 -4 10 35
1896281N23269 1896 41 NA NA NOT_NAMED 1896-10-14 09:00:00 ET 42.7998 -64.5419 main 101 82 P_____________ AL051896 42.7998 -64.5419 EX 52 -4 10 33
1896281N23269 1896 41 NA NA NOT_NAMED 1896-10-14 12:00:00 ET 43.2000 -64.2000 50 hurdat_atl main 82 71 O_____________ hurdat_atl AL051896 43.2000 -64.2000 EX 50 -4 9 33
1896281N23269 1896 41 NA NA NOT_NAMED 1896-10-14 15:00:00 ET 43.5925 -63.8421 main 78 45 P_____________ AL051896 43.5925 -63.8421 EX 47 -4 9 32
1896281N23269 1896 41 NA NA NOT_NAMED 1896-10-14 18:00:00 ET 44.0000 -63.5000 45 hurdat_atl main 45 23 O_____________ hurdat_atl AL051896 44.0000 -63.5000 EX 45 -4 10 29
1896281N23269 1896 41 NA NA NOT_NAMED 1896-10-14 21:00:00 ET 44.4423 -63.1993 main 23 0 P_____________ AL051896 44.4423 -63.1993 EX 42 -4 10 25
1896281N23269 1896 41 NA NA NOT_NAMED 1896-10-15 00:00:00 ET 44.9000 -62.9000 40 hurdat_atl main 0 0 O_____________ hurdat_atl AL051896 44.9000 -62.9000 EX 40 -4 10 27
1896281N23269 1896 41 NA NA NOT_NAMED 1896-10-15 03:00:00 ET 45.3500 -62.5571 main 0 0 P_____________ AL051896 45.3500 -62.5571 EX 37 -4 10 29
1896281N23269 1896 41 NA NA NOT_NAMED 1896-10-15 06:00:00 ET 45.8000 -62.2000 35 hurdat_atl main 7 7 O_____________ hurdat_atl AL051896 45.8000 -62.2000 EX 35 -4 10 28
1896281N23269 1896 41 NA NA NOT_NAMED 1896-10-15 09:00:00 ET 46.2117 -61.9066 main 25 18 P_____________ AL051896 46.2117 -61.9066 EX 35 -4 10 28
1896281N23269 1896 41 NA NA NOT_NAMED 1896-10-15 12:00:00 ET 46.7000 -61.5000 35 hurdat_atl main 37 37 O_____________ hurdat_atl AL051896 46.7000 -61.5000 EX 35 -4 13 32
1896281N23269 1896 41 NA NA NOT_NAMED 1896-10-15 15:00:00 ET 47.3077 -60.9150 main 46 46 P_____________ AL051896 47.3077 -60.9150 EX 35 -4 17 36
1896281N23269 1896 41 NA NA NOT_NAMED 1896-10-15 18:00:00 ET 48.1000 -60.0000 35 hurdat_atl main 49 13 O_____________ hurdat_atl AL051896 48.1000 -60.0000 EX 35 -4 23 40
1896281N23269 1896 41 NA NA NOT_NAMED 1896-10-15 21:00:00 ET 49.0584 -58.6949 main 24 0 P_____________ AL051896 49.0584 -58.6949 EX 35 -4 29 43
1896281N23269 1896 41 NA NA NOT_NAMED 1896-10-16 00:00:00 ET 50.2000 -57.0000 35 hurdat_atl main 0 0 O_____________ hurdat_atl AL051896 50.2000 -57.0000 EX 35 -4 33 45
1896281N23269 1896 41 NA NA NOT_NAMED 1896-10-16 03:00:00 ET 51.4398 -55.0128 main 34 34 P_____________ AL051896 51.4398 -55.0128 EX 35 -4 37 45
1896281N23269 1896 41 NA NA NOT_NAMED 1896-10-16 06:00:00 ET 52.8000 -52.8000 35 hurdat_atl main 193 193 O_____________ hurdat_atl AL051896 52.8000 -52.8000 EX 35 -4 39 44
1896281N23269 1896 41 NA NA NOT_NAMED 1896-10-16 09:00:00 ET 54.2392 -50.5422 main 360 360 P_____________ AL051896 54.2392 -50.5422 EX 35 -4 39 43
1896281N23269 1896 41 NA NA NOT_NAMED 1896-10-16 12:00:00 ET 55.7000 -48.2000 35 hurdat_atl main 516 O_____________ hurdat_atl AL051896 55.7000 -48.2000 EX 35 -4 39 42

IBTrACS Databaseについて

本データベースは、米国NOAAが公開する1842年以降の世界の熱帯低気圧のベストトラックデータアーカイブInternational Best Track Archive for Climate Stewardship (IBTrACS)を、ウェブで閲覧しやすい形式に変換したものです。

最終更新日:2021-10-08